Time;durP1;ratioP1;P1;durP2;ratioP2;P2;SDS_P1;SDS_P2;PMS_P1;PMS_P2;Temp;Humidity;BMP_temperature;BMP_pressure;BME280_temperature;BME280_humidity;BME280_pressure;Samples;Min_cycle;Max_cycle;Signal;HPM_P1;HPM_P2
2022/05/17 00:02:25;;;;;;;17.42;5.35;;;;;;;14.60;100.00;101664.72;4999123;28;20061;-83
2022/05/17 00:04:50;;;;;;;14.85;5.60;;;;;;;14.45;100.00;101659.44;4998980;28;20041;-84
2022/05/17 00:07:18;;;;;;;16.77;5.75;;;;;;;14.27;100.00;101659.06;4999951;28;20765;-84
2022/05/17 00:09:44;;;;;;;11.07;5.40;;;;;;;14.20;100.00;101656.94;4984192;28;20041;-83
2022/05/17 00:12:10;;;;;;;13.20;5.80;;;;;;;14.04;100.00;101641.69;4982749;28;20086;-86
2022/05/17 00:14:36;;;;;;;15.88;5.80;;;;;;;14.27;100.00;101667.34;4966758;28;20547;-84
2022/05/17 00:17:02;;;;;;;13.30;5.95;;;;;;;14.24;100.00;101667.59;4950770;28;20114;-83
2022/05/17 00:19:29;;;;;;;21.25;6.15;;;;;;;14.32;100.00;101666.97;4983522;28;20030;-83
2022/05/17 00:21:54;;;;;;;18.35;6.22;;;;;;;14.26;100.00;101631.66;4976864;28;20046;-84
2022/05/17 00:24:23;;;;;;;18.63;6.13;;;;;;;14.34;100.00;101651.19;4979880;28;20448;-82
2022/05/17 00:26:49;;;;;;;15.40;6.57;;;;;;;14.41;100.00;101668.94;4996848;28;20039;-82
2022/05/17 00:29:15;;;;;;;10.98;5.70;;;;;;;14.32;100.00;101664.22;5005740;28;20045;-83
2022/05/17 00:31:41;;;;;;;16.60;5.90;;;;;;;14.12;100.00;101658.44;4996459;28;20039;-83
2022/05/17 00:34:07;;;;;;;17.88;5.95;;;;;;;14.13;100.00;101665.72;4983507;28;20117;-85
2022/05/17 00:36:34;;;;;;;15.93;6.28;;;;;;;14.26;100.00;101673.84;4998106;28;20034;-82
2022/05/17 00:39:00;;;;;;;16.25;6.25;;;;;;;14.14;100.00;101670.22;5000688;28;20040;-83
2022/05/17 00:41:26;;;;;;;18.48;6.00;;;;;;;14.11;100.00;101670.47;5002095;28;20089;-83
2022/05/17 00:46:56;;;;;;;15.88;6.10;;;;;;;13.91;100.00;101650.03;5000740;28;20433;-83
2022/05/17 00:49:32;;;;;;;19.30;6.80;;;;;;;13.92;100.00;101660.06;4983177;28;20030;-82
2022/05/17 00:52:02;;;;;;;10.50;6.38;;;;;;;13.93;100.00;101664.56;4996926;28;20049;-82
2022/05/17 00:54:29;;;;;;;18.25;6.53;;;;;;;14.14;100.00;101658.31;4999336;28;20022;-84
2022/05/17 00:57:10;;;;;;;17.15;6.10;;;;;;;13.99;100.00;101638.44;4999905;28;20025;-83
2022/05/17 00:59:37;;;;;;;15.00;6.32;;;;;;;13.97;100.00;101655.06;5006985;28;20031;-83
2022/05/17 01:02:07;;;;;;;18.45;6.32;;;;;;;14.07;100.00;101666.22;4983751;28;20110;-84
2022/05/17 01:04:32;;;;;;;17.42;6.93;;;;;;;14.08;100.00;101658.81;4993369;28;20038;-86
2022/05/17 01:07:04;;;;;;;17.10;6.72;;;;;;;13.81;100.00;101659.16;4975914;28;20041;-84
2022/05/17 01:09:30;;;;;;;20.98;7.53;;;;;;;13.64;100.00;101644.00;4974167;28;20030;-84
2022/05/17 01:11:55;;;;;;;19.58;7.03;;;;;;;13.84;100.00;101653.41;4999385;28;20033;-83
2022/05/17 01:17:05;;;;;;;13.35;6.15;;;;;;;13.86;100.00;101649.53;4986329;28;20042;-84
2022/05/17 01:19:31;;;;;;;17.73;6.57;;;;;;;13.62;100.00;101649.63;4984281;28;20045;-83
2022/05/17 01:21:57;;;;;;;15.57;5.53;;;;;;;13.57;100.00;101647.22;4985979;28;20041;-83
2022/05/17 01:24:24;;;;;;;15.25;6.03;;;;;;;13.59;100.00;101648.00;4996309;28;20027;-85
2022/05/17 01:27:00;;;;;;;22.60;6.40;;;;;;;13.65;100.00;101646.63;4989178;28;20145;-84
2022/05/17 01:29:26;;;;;;;16.08;6.85;;;;;;;13.67;100.00;101649.25;4996842;28;20023;-85
2022/05/17 01:31:51;;;;;;;16.88;7.45;;;;;;;13.79;100.00;101643.66;4965607;28;20117;-83
2022/05/17 01:34:17;;;;;;;14.40;7.57;;;;;;;13.91;100.00;101629.91;4979800;28;20482;-83
2022/05/17 01:36:43;;;;;;;19.83;7.30;;;;;;;13.82;100.00;101642.53;4961078;28;20117;-83
2022/05/17 01:39:09;;;;;;;11.35;6.88;;;;;;;13.63;100.00;101629.38;4990188;28;20034;-84
2022/05/17 01:41:35;;;;;;;13.88;5.80;;;;;;;13.62;100.00;101641.38;4980767;28;20039;-84
2022/05/17 01:44:00;;;;;;;17.08;6.85;;;;;;;13.63;100.00;101645.03;4980965;28;20039;-82
2022/05/17 01:46:26;;;;;;;16.70;6.32;;;;;;;13.59;100.00;101655.38;4998657;28;20030;-84
2022/05/17 01:48:52;;;;;;;22.15;7.75;;;;;;;13.45;100.00;101636.34;5002184;28;20389;-83
2022/05/17 01:51:19;;;;;;;19.25;7.65;;;;;;;13.60;100.00;101638.72;4986601;28;20110;-86
2022/05/17 01:53:46;;;;;;;20.08;7.35;;;;;;;13.69;100.00;101637.16;4986686;28;20038;-82
2022/05/17 01:56:12;;;;;;;19.73;7.50;;;;;;;13.62;100.00;101624.00;5000799;28;20038;-83
2022/05/17 01:58:38;;;;;;;20.58;7.05;;;;;;;13.66;100.00;101631.88;4987544;28;20077;-84
2022/05/17 02:01:05;;;;;;;20.98;7.57;;;;;;;13.56;100.00;101617.97;4972669;28;20042;-83
2022/05/17 02:03:31;;;;;;;14.13;7.60;;;;;;;13.56;100.00;101631.75;5002048;28;20085;-84
2022/05/17 02:05:57;;;;;;;20.13;7.88;;;;;;;13.85;100.00;101628.50;5000942;28;20077;-83
2022/05/17 02:08:23;;;;;;;24.63;9.05;;;;;;;13.78;100.00;101627.25;4988952;28;20030;-83
2022/05/17 02:10:48;;;;;;;19.23;8.73;;;;;;;13.81;100.00;101631.63;4988942;28;20452;-83
2022/05/17 02:13:16;;;;;;;22.30;9.95;;;;;;;13.68;100.00;101632.63;4946356;28;20134;-83
2022/05/17 02:15:42;;;;;;;20.52;8.10;;;;;;;13.82;100.00;101636.16;4979048;28;20429;-83
2022/05/17 02:18:07;;;;;;;21.52;8.57;;;;;;;13.73;100.00;101641.38;4986063;28;20038;-83
2022/05/17 02:20:34;;;;;;;21.92;9.57;;;;;;;13.73;100.00;101619.38;5004940;28;20029;-82
2022/05/17 02:23:00;;;;;;;22.52;9.52;;;;;;;13.89;100.00;101645.69;5001563;28;20065;-83
2022/05/17 02:25:26;;;;;;;22.67;9.98;;;;;;;13.91;100.00;101649.19;5016421;28;20413;-82
2022/05/17 02:27:52;;;;;;;21.63;9.73;;;;;;;13.85;100.00;101645.03;4967945;28;20035;-83
2022/05/17 02:30:20;;;;;;;23.65;9.65;;;;;;;13.94;100.00;101643.44;5017917;28;20038;-83
2022/05/17 02:32:47;;;;;;;19.63;9.07;;;;;;;14.05;100.00;101657.22;4996086;28;20073;-83
2022/05/17 02:35:14;;;;;;;24.40;9.43;;;;;;;14.17;100.00;101638.81;5002207;28;20470;-84
2022/05/17 02:37:41;;;;;;;30.88;10.18;;;;;;;14.33;100.00;101660.44;5003017;28;20371;-83
2022/05/17 02:40:07;;;;;;;23.08;9.40;;;;;;;14.26;100.00;101662.81;4987717;28;20058;-84
2022/05/17 02:42:33;;;;;;;15.07;9.18;;;;;;;14.29;100.00;101667.22;4981866;28;20038;-84
2022/05/17 02:44:59;;;;;;;15.77;9.68;;;;;;;14.27;100.00;101659.06;4988037;28;20061;-84
2022/05/17 02:47:24;;;;;;;20.70;9.20;;;;;;;14.30;100.00;101661.59;5020717;28;20494;-83
2022/05/17 02:49:50;;;;;;;16.40;9.48;;;;;;;14.32;100.00;101655.94;4985776;28;20109;-83
2022/05/17 02:52:16;;;;;;;16.02;9.13;;;;;;;14.25;100.00;101649.16;5013691;28;20022;-83
2022/05/17 02:54:42;;;;;;;21.48;8.80;;;;;;;14.42;100.00;101667.94;4998701;28;20077;-84
2022/05/17 02:57:08;;;;;;;24.75;10.05;;;;;;;14.48;100.00;101664.69;4983410;28;20518;-83
2022/05/17 02:59:34;;;;;;;19.98;8.73;;;;;;;14.34;100.00;101643.78;4968244;28;20637;-84
2022/05/17 03:02:00;;;;;;;15.82;9.25;;;;;;;14.48;100.00;101661.94;4978187;28;20039;-84
2022/05/17 03:04:27;;;;;;;21.20;9.15;;;;;;;14.50;100.00;101659.94;4991331;28;20033;-84
2022/05/17 03:06:53;;;;;;;18.52;9.57;;;;;;;14.39;100.00;101653.56;5001764;28;20030;-84
2022/05/17 03:09:20;;;;;;;20.45;9.68;;;;;;;14.42;100.00;101670.72;5002008;28;20045;-85
2022/05/17 03:11:46;;;;;;;20.23;9.23;;;;;;;14.46;100.00;101649.28;4953429;28;20035;-84
2022/05/17 03:14:17;;;;;;;22.67;9.43;;;;;;;14.54;100.00;101668.81;4976377;28;20030;-83
2022/05/17 03:16:43;;;;;;;22.67;8.98;;;;;;;14.55;100.00;101665.06;5001540;28;20123;-84
2022/05/17 03:19:09;;;;;;;19.63;9.70;;;;;;;14.45;100.00;101666.84;4964951;28;20030;-83
2022/05/17 03:21:34;;;;;;;22.80;8.50;;;;;;;14.51;100.00;101663.53;5001721;28;20038;-82
2022/05/17 03:24:01;;;;;;;21.23;9.48;;;;;;;14.63;100.00;101672.72;5001826;28;20100;-82
2022/05/17 03:26:28;;;;;;;16.38;9.07;;;;;;;14.62;100.00;101671.84;4983014;28;20034;-83
2022/05/17 03:28:56;;;;;;;17.40;8.80;;;;;;;14.57;100.00;101663.03;4979157;28;20042;-82
2022/05/17 03:31:22;;;;;;;16.75;9.57;;;;;;;14.66;100.00;101676.09;4989369;28;20055;-84
2022/05/17 03:33:48;;;;;;;19.95;9.07;;;;;;;14.40;100.00;101655.31;4987637;28;20030;-82
2022/05/17 03:36:13;;;;;;;21.83;10.43;;;;;;;14.33;100.00;101671.44;4967982;28;20035;-82
2022/05/17 03:38:39;;;;;;;16.77;10.13;;;;;;;14.08;100.00;101645.91;4951848;28;20033;-82
2022/05/17 03:41:05;;;;;;;16.67;9.57;;;;;;;14.32;100.00;101666.97;5016858;28;20034;-83
2022/05/17 03:43:31;;;;;;;23.38;10.15;;;;;;;14.24;100.00;101664.84;4965600;28;20038;-83
2022/05/17 03:45:58;;;;;;;23.42;10.50;;;;;;;14.27;100.00;101671.97;4992385;28;20031;-82
2022/05/17 03:48:26;;;;;;;26.13;10.10;;;;;;;14.27;100.00;101688.50;4989212;28;20043;-83
2022/05/17 03:50:52;;;;;;;18.98;10.35;;;;;;;14.30;100.00;101668.97;4990868;28;20054;-83
2022/05/17 03:53:18;;;;;;;21.73;10.18;;;;;;;14.14;100.00;101663.84;4997541;28;20034;-82
2022/05/17 03:55:43;;;;;;;31.95;10.98;;;;;;;14.19;100.00;101686.38;4984331;28;20438;-84
2022/05/17 03:58:09;;;;;;;17.45;10.23;;;;;;;14.15;100.00;101683.00;4997911;28;20050;-85
2022/05/17 04:00:35;;;;;;;20.15;10.18;;;;;;;14.16;100.00;101681.97;4963474;28;20089;-83
2022/05/17 04:03:01;;;;;;;21.38;10.77;;;;;;;14.07;100.00;101681.84;4982368;28;20042;-84
2022/05/17 04:05:27;;;;;;;19.92;9.63;;;;;;;14.10;100.00;101688.00;5009271;28;20062;-83
2022/05/17 04:07:53;;;;;;;16.60;9.77;;;;;;;14.15;100.00;101682.13;4982887;28;20477;-84
2022/05/17 04:10:19;;;;;;;23.13;10.55;;;;;;;14.13;100.00;101692.38;4992320;28;20037;-86
2022/05/17 04:12:46;;;;;;;22.70;10.45;;;;;;;14.29;100.00;101678.22;5001797;28;20042;-84
2022/05/17 04:15:16;;;;;;;25.20;11.40;;;;;;;14.14;100.00;101656.44;4998743;28;20052;-85
2022/05/17 04:17:42;;;;;;;26.75;10.80;;;;;;;14.23;100.00;101690.66;4989024;28;20378;-86
2022/05/17 04:20:09;;;;;;;20.55;11.13;;;;;;;14.16;100.00;101667.34;5001785;28;20065;-84
2022/05/17 04:22:35;;;;;;;20.65;11.52;;;;;;;14.30;100.00;101691.03;4980605;28;20066;-85
2022/05/17 04:25:00;;;;;;;27.52;12.90;;;;;;;14.32;100.00;101686.25;4976060;28;20034;-86
2022/05/17 04:27:26;;;;;;;24.00;11.48;;;;;;;14.42;100.00;101687.25;4980169;28;20040;-85
2022/05/17 04:29:52;;;;;;;22.35;12.45;;;;;;;14.50;100.00;101692.13;4971352;28;20494;-85
2022/05/17 04:32:18;;;;;;;25.35;12.95;;;;;;;14.48;100.00;101691.38;4999053;28;20043;-84
2022/05/17 04:34:44;;;;;;;31.02;11.80;;;;;;;14.52;100.00;101690.97;4982328;28;20034;-85
2022/05/17 04:37:09;;;;;;;31.40;13.07;;;;;;;14.51;100.00;101692.00;4961669;28;20034;-84
2022/05/17 04:39:35;;;;;;;24.50;12.20;;;;;;;14.51;100.00;101692.00;4963776;28;20121;-81
2022/05/17 04:42:01;;;;;;;24.25;13.00;;;;;;;14.58;100.00;101700.63;4997331;28;20039;-83
2022/05/17 04:44:27;;;;;;;21.27;12.50;;;;;;;14.58;100.00;101703.41;4982582;28;20030;-83
2022/05/17 04:46:52;;;;;;;29.83;13.45;;;;;;;14.58;100.00;101686.00;4989951;28;20473;-81
2022/05/17 04:49:18;;;;;;;22.23;11.93;;;;;;;14.63;100.00;101695.66;4966313;28;20035;-82
2022/05/17 04:51:44;;;;;;;25.30;12.20;;;;;;;14.71;100.00;101700.53;4956428;28;20035;-83
2022/05/17 04:54:10;;;;;;;24.02;11.90;;;;;;;14.73;100.00;101697.66;4998480;28;20049;-84
2022/05/17 04:56:36;;;;;;;21.35;11.30;;;;;;;14.79;100.00;101697.13;4966276;28;20035;-80
2022/05/17 04:59:02;;;;;;;23.77;13.15;;;;;;;14.83;100.00;101695.88;4979536;28;20116;-81
2022/05/17 05:01:28;;;;;;;31.02;12.88;;;;;;;14.89;100.00;101703.63;4990628;28;20045;-83
2022/05/17 05:03:54;;;;;;;20.73;11.93;;;;;;;14.80;100.00;101701.63;4981051;28;20031;-81
2022/05/17 05:06:20;;;;;;;32.78;12.55;;;;;;;14.80;100.00;101702.50;4980538;28;20042;-83
2022/05/17 05:08:46;;;;;;;20.67;11.45;;;;;;;14.92;100.00;101700.63;5000308;28;20096;-84
2022/05/17 05:11:13;;;;;;;21.17;10.77;;;;;;;15.03;100.00;101706.09;4979756;28;20031;-82
2022/05/17 05:13:39;;;;;;;25.65;11.27;;;;;;;15.12;100.00;101709.06;4955673;28;20046;-84
2022/05/17 05:16:10;;;;;;;24.65;11.88;;;;;;;15.15;100.00;101709.72;4962603;28;20034;-82
2022/05/17 05:18:36;;;;;;;17.67;9.93;;;;;;;15.23;100.00;101698.91;4967798;28;20084;-82
2022/05/17 05:21:06;;;;;;;18.08;10.38;;;;;;;15.37;100.00;101714.25;4981126;28;20501;-83
2022/05/17 05:23:32;;;;;;;22.20;10.02;;;;;;;15.48;100.00;101716.09;4996910;28;20069;-84
2022/05/17 05:25:59;;;;;;;24.58;10.82;;;;;;;15.54;100.00;101714.69;4985064;28;20037;-83
2022/05/17 05:28:25;;;;;;;23.67;10.65;;;;;;;15.54;100.00;101700.88;5018533;28;20040;-83
2022/05/17 05:30:50;;;;;;;22.38;9.88;;;;;;;15.56;100.00;101713.56;5001598;28;20038;-83
2022/05/17 05:33:16;;;;;;;19.30;9.85;;;;;;;15.63;100.00;101702.84;4954616;28;20038;-83
2022/05/17 05:35:41;;;;;;;19.67;9.25;;;;;;;15.61;100.00;101697.47;4983850;28;20093;-84
2022/05/17 05:38:08;;;;;;;18.63;9.93;;;;;;;15.69;100.00;101718.88;4981700;28;20078;-82
2022/05/17 05:40:33;;;;;;;17.42;10.15;;;;;;;15.75;100.00;101714.69;4968671;28;20032;-84
2022/05/17 05:42:59;;;;;;;23.08;10.02;;;;;;;15.74;100.00;101718.47;4983714;28;20373;-83
2022/05/17 05:45:25;;;;;;;21.17;9.90;;;;;;;15.86;100.00;101720.19;4990504;28;20046;-84
2022/05/17 05:47:52;;;;;;;16.77;10.10;;;;;;;15.96;100.00;101715.59;4997221;28;20038;-84
2022/05/17 05:50:20;;;;;;;27.83;10.63;;;;;;;16.10;100.00;101719.91;4957174;28;20045;-83
2022/05/17 05:52:47;;;;;;;23.40;10.07;;;;;;;16.26;100.00;101724.06;5000362;28;20771;-83
2022/05/17 05:55:20;;;;;;;16.33;9.55;;;;;;;16.37;100.00;101740.56;4986688;28;20034;-84
2022/05/17 05:57:47;;;;;;;23.45;10.85;;;;;;;16.41;100.00;101738.41;4988708;28;20041;-82
2022/05/17 06:00:15;;;;;;;22.92;9.20;;;;;;;16.48;100.00;101731.31;4994315;28;20093;-85
2022/05/17 06:02:42;;;;;;;15.23;9.35;;;;;;;16.62;100.00;101735.59;4983994;28;20049;-82
2022/05/17 06:05:08;;;;;;;23.10;8.93;;;;;;;16.70;100.00;101738.53;4998445;28;20042;-82
2022/05/17 06:07:35;;;;;;;17.42;9.90;;;;;;;16.73;100.00;101725.28;5014234;28;20045;-83
2022/05/17 06:10:03;;;;;;;20.23;8.93;;;;;;;16.87;100.00;101735.13;5000286;28;20041;-83
2022/05/17 06:12:29;;;;;;;25.17;8.65;;;;;;;16.89;100.00;101740.53;4972826;28;20110;-81
2022/05/17 06:14:54;;;;;;;15.52;7.75;;;;;;;16.99;100.00;101737.78;4976668;28;20037;-83
2022/05/17 06:17:24;;;;;;;18.98;8.02;;;;;;;17.13;100.00;101742.88;4961859;28;20034;-77
2022/05/17 06:19:52;;;;;;;22.05;8.15;;;;;;;17.30;100.00;101737.66;4944227;28;20573;-77
2022/05/17 06:22:18;;;;;;;18.08;8.10;;;;;;;17.33;100.00;101745.69;4973016;28;20105;-76
2022/05/17 06:24:45;;;;;;;19.10;7.85;;;;;;;17.29;100.00;101745.13;4979854;28;20125;-76
2022/05/17 06:27:10;;;;;;;22.85;7.90;;;;;;;17.32;100.00;101753.13;4994974;28;20031;-78
2022/05/17 06:29:36;;;;;;;15.90;9.23;;;;;;;17.38;100.00;101755.34;4995057;28;20077;-78
2022/05/17 06:32:02;;;;;;;19.13;8.75;;;;;;;17.56;100.00;101762.91;4979960;28;20859;-79
2022/05/17 06:34:27;;;;;;;22.13;8.82;;;;;;;17.80;100.00;101765.25;4978323;28;20038;-78
2022/05/17 06:36:53;;;;;;;18.23;8.88;;;;;;;17.85;100.00;101764.81;4976647;28;20038;-78
2022/05/17 06:39:18;;;;;;;17.50;8.82;;;;;;;17.95;100.00;101762.94;4973670;28;20117;-78
2022/05/17 06:41:44;;;;;;;21.65;8.45;;;;;;;18.20;100.00;101761.44;4979790;28;20434;-77
2022/05/17 06:44:10;;;;;;;24.85;8.63;;;;;;;18.10;100.00;101755.94;4998053;28;20100;-79
2022/05/17 06:46:35;;;;;;;16.92;8.38;;;;;;;18.17;100.00;101767.28;4991303;28;20150;-78
2022/05/17 06:49:01;;;;;;;17.58;8.82;;;;;;;18.43;100.00;101767.53;4970297;28;20042;-77
2022/05/17 06:51:28;;;;;;;20.95;8.57;;;;;;;18.15;100.00;101772.09;4980015;28;20371;-78
2022/05/17 06:53:54;;;;;;;25.58;8.40;;;;;;;18.00;100.00;101772.56;4978016;28;20034;-77
2022/05/17 06:56:19;;;;;;;24.23;8.45;;;;;;;17.96;100.00;101771.09;4989673;28;20080;-79
2022/05/17 06:58:45;;;;;;;20.95;8.40;;;;;;;18.00;100.00;101772.56;4990180;28;20045;-78
2022/05/17 07:01:10;;;;;;;28.83;9.25;;;;;;;17.87;100.00;101780.28;4990934;28;20034;-78
2022/05/17 07:03:36;;;;;;;20.38;8.55;;;;;;;17.98;100.00;101788.44;4992088;28;20057;-77
2022/05/17 07:06:03;;;;;;;25.40;9.52;;;;;;;18.03;100.00;101781.59;4977471;28;20102;-80
2022/05/17 07:08:28;;;;;;;32.42;9.45;;;;;;;18.10;100.00;101793.84;4993754;28;20114;-79
2022/05/17 07:13:38;;;;;;;26.52;9.60;;;;;;;18.10;100.00;101797.50;5001297;28;20126;-80
2022/05/17 07:16:03;;;;;;;29.90;10.75;;;;;;;18.12;100.00;101789.91;4982232;28;20673;-80
2022/05/17 07:18:29;;;;;;;25.90;10.77;;;;;;;18.10;100.00;101786.41;5012609;28;20038;-79
2022/05/17 07:20:56;;;;;;;22.70;10.95;;;;;;;18.13;100.00;101788.88;4997603;28;20501;-80
2022/05/17 07:23:24;;;;;;;22.95;11.02;;;;;;;18.24;100.00;101798.94;5016684;28;20031;-80
2022/05/17 07:25:50;;;;;;;25.05;11.40;;;;;;;18.17;100.00;101798.66;4982234;28;20050;-79
2022/05/17 07:28:22;;;;;;;27.70;12.57;;;;;;;18.11;100.00;101795.59;4992528;28;20031;-79
2022/05/17 07:30:48;;;;;;;25.90;11.90;;;;;;;18.09;100.00;101792.97;4989233;28;20042;-80
2022/05/17 07:33:14;;;;;;;31.70;13.50;;;;;;;18.16;100.00;101801.56;4981321;28;20057;-81
2022/05/17 07:35:40;;;;;;;24.90;12.30;;;;;;;18.23;100.00;101805.47;4996010;28;20493;-80
2022/05/17 07:38:06;;;;;;;27.50;11.52;;;;;;;18.28;100.00;101814.25;4983534;28;20153;-79
2022/05/17 07:40:33;;;;;;;28.75;13.25;;;;;;;18.19;100.00;101804.91;5010175;28;20066;-79
2022/05/17 07:42:59;;;;;;;29.08;12.32;;;;;;;18.30;100.00;101805.75;5003972;28;20034;-80
2022/05/17 07:45:24;;;;;;;23.67;12.13;;;;;;;18.42;100.00;101814.81;4977894;28;20059;-80
2022/05/17 07:47:50;;;;;;;27.33;12.77;;;;;;;18.50;100.00;101809.38;5016703;28;20034;-80
2022/05/17 07:50:16;;;;;;;30.08;13.18;;;;;;;18.37;100.00;101806.94;4994941;28;20037;-79
2022/05/17 07:52:42;;;;;;;30.50;13.68;;;;;;;18.17;100.00;101804.19;4988570;28;20497;-81
2022/05/17 07:55:10;;;;;;;22.45;13.20;;;;;;;18.29;100.00;101806.81;4972575;28;20486;-80
2022/05/17 07:57:36;;;;;;;27.23;13.18;;;;;;;18.31;100.00;101816.69;4999235;28;20046;-80
2022/05/17 08:00:05;;;;;;;31.73;13.50;;;;;;;18.17;100.00;101812.50;4980847;28;20042;-79
2022/05/17 08:02:32;;;;;;;31.30;14.65;;;;;;;18.17;100.00;101814.41;4981450;28;20026;-80
2022/05/17 08:04:58;;;;;;;34.95;13.07;;;;;;;18.32;100.00;101817.59;5016066;28;20022;-80
2022/05/17 08:07:27;;;;;;;24.13;12.95;;;;;;;18.36;100.00;101811.63;5001093;28;20038;-80
2022/05/17 08:09:52;;;;;;;36.40;14.05;;;;;;;18.19;100.00;101815.13;4964185;28;20729;-79
2022/05/17 08:12:18;;;;;;;27.73;13.70;;;;;;;18.30;100.00;101817.75;4982271;28;20058;-79
2022/05/17 08:14:45;;;;;;;27.88;13.23;;;;;;;18.15;100.00;101813.66;4982017;28;20046;-80
2022/05/17 08:17:10;;;;;;;27.58;13.65;;;;;;;18.09;100.00;101809.59;4982590;28;20061;-80
2022/05/17 08:19:38;;;;;;;30.52;13.32;;;;;;;18.31;100.00;101811.16;4996977;28;20034;-80
2022/05/17 08:22:05;;;;;;;29.27;12.55;;;;;;;18.36;100.00;101800.53;5016143;28;20772;-79
2022/05/17 08:27:31;;;;;;;25.35;12.77;;;;;;;18.18;100.00;101797.63;4963484;28;20038;-80
2022/05/17 08:27:32;;;;;;;35.92;12.98;;;;;;;18.16;100.00;101798.78;5001450;28;20039;-79
2022/05/17 08:30:05;;;;;;;26.63;12.35;;;;;;;18.24;100.00;101796.16;4984288;28;20038;-81
2022/05/17 08:35:17;;;;;;;24.92;12.32;;;;;;;18.31;100.00;101796.44;4987179;28;20109;-81
2022/05/17 08:37:43;;;;;;;28.77;12.38;;;;;;;18.36;100.00;101791.31;4990574;28;20078;-79
2022/05/17 08:40:16;;;;;;;31.95;12.80;;;;;;;18.57;100.00;101795.78;4963958;28;20169;-81
2022/05/17 08:43:23;;;;;;;27.98;12.05;;;;;;;18.53;100.00;101800.78;4989123;28;20046;-80
2022/05/17 08:46:18;;;;;;;27.52;12.27;;;;;;;18.62;100.00;101796.22;4981189;28;20054;-79
2022/05/17 08:48:49;;;;;;;28.25;13.40;;;;;;;18.62;100.00;101801.75;5012750;28;20039;-80
2022/05/17 08:51:24;;;;;;;32.03;13.30;;;;;;;18.79;100.00;101805.63;4998323;28;20042;-79
2022/05/17 08:53:50;;;;;;;29.42;13.68;;;;;;;18.51;100.00;101802.78;4996481;28;20045;-79
2022/05/17 08:56:16;;;;;;;27.92;13.30;;;;;;;18.47;100.00;101805.00;4990983;28;20057;-78
2022/05/17 08:58:46;;;;;;;25.92;12.48;;;;;;;18.47;100.00;101806.91;4996420;28;20041;-81
2022/05/17 09:01:28;;;;;;;21.10;11.38;;;;;;;18.43;100.00;101797.13;5008259;28;20026;-81
2022/05/17 09:04:09;;;;;;;29.55;13.63;;;;;;;18.39;100.00;101798.47;4974767;28;20041;-79
2022/05/17 09:06:56;;;;;;;28.45;12.95;;;;;;;18.33;100.00;101783.28;4989432;28;20077;-79
2022/05/17 09:09:33;;;;;;;25.65;13.02;;;;;;;18.53;100.00;101798.00;4994312;28;20041;-79
2022/05/17 09:12:21;;;;;;;34.55;13.95;;;;;;;18.63;100.00;101792.41;4975034;28;20023;-78
2022/05/17 09:14:51;;;;;;;30.20;13.77;;;;;;;18.74;100.00;101795.88;4981137;28;20049;-78
2022/05/17 09:17:24;;;;;;;27.27;13.82;;;;;;;18.90;100.00;101791.59;4993361;28;20102;-78
2022/05/17 09:19:52;;;;;;;28.55;14.40;;;;;;;19.25;100.00;101795.50;4993204;28;20030;-78
2022/05/17 09:22:18;;;;;;;31.20;14.77;;;;;;;19.31;100.00;101789.31;4978309;28;20022;-78
2022/05/17 09:24:45;;;;;;;30.55;16.55;;;;;;;19.23;100.00;101800.31;4990237;28;20046;-78
2022/05/17 09:27:35;;;;;;;26.00;14.18;;;;;;;19.18;100.00;101794.38;4983630;28;20035;-77
2022/05/17 09:30:11;;;;;;;33.70;14.10;;;;;;;19.23;100.00;101795.66;4999288;28;20426;-76
2022/05/17 09:32:44;;;;;;;27.38;11.70;;;;;;;19.22;100.00;101793.91;4988477;28;20038;-78
2022/05/17 09:35:20;;;;;;;23.08;11.10;;;;;;;19.37;100.00;101804.50;4991489;28;20045;-77
2022/05/17 09:37:50;;;;;;;25.40;10.00;;;;;;;19.51;100.00;101803.94;4995708;28;20038;-79
2022/05/17 09:40:23;;;;;;;22.33;10.15;;;;;;;19.52;100.00;101794.59;4986149;28;20422;-79
2022/05/17 09:43:06;;;;;;;23.30;10.70;;;;;;;19.72;100.00;101795.31;4989861;28;20034;-78
2022/05/17 09:45:49;;;;;;;;;;;;;;;19.90;100.00;101792.56;5011685;28;20045;-79
2022/05/17 09:54:58;;;;;;;31.45;15.10;;;;;;;19.85;100.00;101792.16;4994943;28;20462;-79
2022/05/17 09:57:30;;;;;;;31.17;14.73;;;;;;;19.91;100.00;101793.44;4990984;28;21463;-81
2022/05/17 10:00:08;;;;;;;31.53;15.10;;;;;;;19.91;100.00;101790.66;5004269;28;20093;-79
2022/05/17 10:02:39;;;;;;;27.80;13.93;;;;;;;19.92;100.00;101786.84;5007911;28;20041;-79
2022/05/17 10:05:20;;;;;;;31.20;14.05;;;;;;;19.87;100.00;101794.78;4994017;28;20658;-78
2022/05/17 10:07:56;;;;;;;35.00;13.15;;;;;;;19.87;100.00;101783.66;4982422;28;21904;-79
2022/05/17 10:10:25;;;;;;;29.15;13.57;;;;;;;19.93;100.00;101778.34;4984441;28;20039;-79
2022/05/17 10:12:56;;;;;;;30.88;14.98;;;;;;;19.87;100.00;101778.97;4994045;28;20026;-79
2022/05/17 10:15:22;;;;;;;35.78;15.48;;;;;;;19.70;100.00;101772.38;4976872;28;20038;-79
2022/05/17 10:18:00;;;;;;;27.05;14.40;;;;;;;19.70;100.00;101764.03;4994720;28;20494;-81
2022/05/17 10:20:43;;;;;;;30.10;15.80;;;;;;;19.85;100.00;101761.59;5009963;28;20070;-81
2022/05/17 10:23:44;;;;;;;36.75;16.73;;;;;;;19.62;100.00;101756.47;4997915;28;20035;-82
2022/05/17 10:26:13;;;;;;;43.40;19.10;;;;;;;19.57;100.00;101753.31;4979390;28;20043;-81
2022/05/17 10:28:56;;;;;;;40.40;18.48;;;;;;;19.57;100.00;101741.34;4975556;28;20038;-82
2022/05/17 10:32:00;;;;;;;36.45;16.83;;;;;;;19.60;100.00;101741.03;4985772;28;20072;-83
2022/05/17 10:34:38;;;;;;;24.90;15.52;;;;;;;19.66;100.00;101732.06;4966332;28;20091;-82
2022/05/17 10:37:13;;;;;;;41.65;16.70;;;;;;;19.74;100.00;101734.00;4988887;28;20516;-79
2022/05/17 10:39:54;;;;;;;30.90;16.20;;;;;;;19.76;100.00;101732.88;4985725;28;20118;-78
2022/05/17 10:42:21;;;;;;;31.75;14.98;;;;;;;19.95;100.00;101729.00;4984799;28;20054;-79
2022/05/17 10:44:53;;;;;;;26.77;13.85;;;;;;;20.42;100.00;101732.47;4988174;28;20066;-78
2022/05/17 10:47:34;;;;;;;31.38;13.88;;;;;;;20.73;100.00;101735.63;4976595;28;20389;-79
2022/05/17 10:50:26;;;;;;;31.60;13.27;;;;;;;21.07;100.00;101731.91;4991735;28;20030;-79
2022/05/17 10:53:13;;;;;;;24.23;11.90;;;;;;;21.87;100.00;101738.88;4968236;28;20088;-82
2022/05/17 10:55:58;;;;;;;23.85;10.98;;;;;;;22.15;100.00;101737.47;4991088;28;20502;-79
2022/05/17 10:58:53;;;;;;;26.27;10.02;;;;;;;22.77;100.00;101730.34;4977816;28;20043;-80
2022/05/17 11:01:29;;;;;;;19.77;8.23;;;;;;;22.83;100.00;101737.16;4996334;28;20479;-79
2022/05/17 11:04:27;;;;;;;23.35;9.32;;;;;;;22.53;100.00;101726.59;4993375;28;20041;-81
2022/05/17 11:06:55;;;;;;;19.48;8.77;;;;;;;21.99;100.00;101726.34;4992814;28;20117;-82
2022/05/17 11:09:46;;;;;;;22.30;9.10;;;;;;;22.68;100.00;101720.28;4994270;28;20470;-82
2022/05/17 11:12:14;;;;;;;20.17;8.80;;;;;;;23.25;100.00;101711.63;4995964;28;20034;-80
2022/05/17 11:14:52;;;;;;;22.35;7.25;;;;;;;24.11;98.60;101711.50;4981071;28;20030;-78
2022/05/17 11:18:01;;;;;;;16.55;7.10;;;;;;;23.73;93.98;101707.81;4998931;28;20042;-80
2022/05/17 11:20:35;;;;;;;20.67;5.90;;;;;;;23.31;93.57;101701.63;4966911;28;20073;-78
2022/05/17 11:23:32;;;;;;;17.53;6.40;;;;;;;23.18;94.12;101713.41;5008736;28;20049;-81
2022/05/17 11:26:25;;;;;;;13.85;6.88;;;;;;;22.90;99.26;101711.09;4975801;28;20927;-81
2022/05/17 11:29:03;;;;;;;19.30;7.35;;;;;;;23.01;94.32;101704.22;4989848;28;20471;-82
2022/05/17 11:31:29;;;;;;;19.70;6.53;;;;;;;23.33;94.07;101693.06;4970496;28;20084;-81
2022/05/17 11:34:26;;;;;;;12.90;6.28;;;;;;;23.52;92.40;101694.50;4997473;28;20142;-81
2022/05/17 11:37:00;;;;;;;12.15;5.70;;;;;;;23.36;89.29;101689.91;4990187;28;20034;-81